CDG weather

Charles de Gaulle International Airport
Paris, Île-de-France, France

Public forecast

Using degrees Celsius for public forecast. Weather courtesy of forecast.io.

METAR (pilot weather report)

Retrieved 2018/09/20 08:00 UTC (21 minutes ago):

LFPG 200800Z 21007KT 9999 FEW016 BKN260 19/14 Q1019 NOSIG

TAF (pilot weather forecast)

Retrieved 2018/09/20 06:21 UTC (2 hours ago):

TAF LFPG 200500Z 2006/2112 20005KT CAVOK TX26/2015Z TN15/2107Z PROB30 TEMPO 2006/2008 BKN006 BECMG 2102/2105 24015G30KT PROB40 TEMPO 2105/2107 4000 RA BECMG 2110/2112 17012KT